Time;durP1;ratioP1;P1;durP2;ratioP2;P2;SDS_P1;SDS_P2;PMS_P1;PMS_P2;Temp;Humidity;BMP_temperature;BMP_pressure;BME280_temperature;BME280_humidity;BME280_pressure;Samples;Min_cycle;Max_cycle;Signal;HPM_P1;HPM_P2
2022/09/23 00:00:40;;;;;;;14.15;7.60;;;8.80;1.00;;;;;;5071630;28;20399;-55
2022/09/23 00:03:06;;;;;;;15.02;8.35;;;9.90;1.00;;;;;;5072084;28;20867;-55
2022/09/23 00:05:32;;;;;;;15.00;8.68;;;9.00;1.00;;;;;;5071288;28;20443;-55
2022/09/23 00:07:58;;;;;;;17.20;8.43;;;9.10;1.00;;;;;;5072209;28;20713;-55
2022/09/23 00:10:29;;;;;;;14.43;8.15;;;9.10;1.00;;;;;;5071097;28;20447;-55
2022/09/23 00:12:55;;;;;;;15.80;8.35;;;9.10;1.00;;;;;;5072171;28;20421;-55
2022/09/23 00:15:24;;;;;;;19.00;8.98;;;9.20;1.00;;;;;;5070236;28;20388;-55
2022/09/23 00:17:52;;;;;;;15.98;8.13;;;9.20;1.00;;;;;;5053643;28;20388;-55
2022/09/23 00:20:18;;;;;;;18.00;8.35;;;9.40;1.00;;;;;;5070954;28;20853;-55
2022/09/23 00:22:44;;;;;;;13.85;7.90;;;9.60;1.00;;;;;;5072173;28;20379;-55
2022/09/23 00:25:10;;;;;;;14.90;7.95;;;9.00;1.00;;;;;;5071278;28;20372;-55
2022/09/23 00:27:37;;;;;;;15.70;8.13;;;8.90;1.00;;;;;;5071204;28;20391;-55
2022/09/23 00:30:06;;;;;;;18.05;9.00;;;8.90;1.00;;;;;;5071668;28;20502;-55
2022/09/23 00:32:32;;;;;;;16.20;8.50;;;8.90;1.00;;;;;;5070704;28;20443;-55
2022/09/23 00:34:58;;;;;;;14.57;8.32;;;8.90;1.00;;;;;;5071875;28;20380;-55
2022/09/23 00:37:23;;;;;;;17.43;8.67;;;8.80;1.00;;;;;;5070725;28;20396;-55
2022/09/23 00:39:49;;;;;;;16.00;8.50;;;8.70;1.00;;;;;;5071174;28;20405;-55
2022/09/23 00:42:19;;;;;;;17.03;8.13;;;10.50;1.80;;;;;;5071360;28;20419;-55
2022/09/23 00:44:51;;;;;;;16.70;8.40;;;8.60;14.00;;;;;;5071246;28;20467;-55
2022/09/23 00:47:33;;;;;;;17.20;8.90;;;8.50;21.50;;;;;;5070853;28;20437;-55
2022/09/23 00:50:07;;;;;;;15.40;8.40;;;8.50;27.40;;;;;;5070924;28;20379;-55
2022/09/23 00:52:34;;;;;;;15.10;8.73;;;8.50;40.00;;;;;;5070444;28;20398;-55
2022/09/23 00:55:04;;;;;;;16.15;9.00;;;8.40;46.90;;;;;;5071148;28;20437;-55
2022/09/23 00:57:30;;;;;;;20.50;8.93;;;8.40;54.10;;;;;;5070339;28;20483;-55
2022/09/23 00:59:56;;;;;;;18.05;9.20;;;8.50;54.00;;;;;;5071379;28;20396;-55
2022/09/23 01:02:22;;;;;;;17.25;9.10;;;8.70;29.10;;;;;;5070370;28;20384;-55
2022/09/23 01:04:51;;;;;;;17.00;8.70;;;8.60;20.60;;;;;;5071024;28;20387;-55
2022/09/23 01:07:17;;;;;;;15.07;8.52;;;9.50;40.50;;;;;;5070358;28;20514;-55
2022/09/23 01:09:46;;;;;;;15.90;8.57;;;8.50;53.60;;;;;;5070461;28;20418;-55
2022/09/23 01:12:17;;;;;;;16.00;9.10;;;8.50;31.90;;;;;;5070718;28;20532;-55
2022/09/23 01:15:01;;;;;;;15.50;9.20;;;8.50;40.70;;;;;;5069528;28;20400;-55
2022/09/23 01:17:44;;;;;;;18.58;9.15;;;8.40;43.20;;;;;;5068736;28;20788;-55
2022/09/23 01:20:27;;;;;;;18.13;9.70;;;8.40;60.00;;;;;;5070805;28;20380;-55
2022/09/23 01:23:09;;;;;;;17.00;9.07;;;8.50;58.00;;;;;;5070649;28;20748;-55
2022/09/23 01:26:11;;;;;;;16.13;9.70;;;8.50;58.00;;;;;;5069744;28;20388;-55
2022/09/23 01:28:40;;;;;;;16.40;9.02;;;8.60;55.10;;;;;;5069447;28;20912;-55
2022/09/23 01:31:16;;;;;;;15.57;8.60;;;8.50;56.50;;;;;;5070427;28;20411;-55
2022/09/23 01:33:44;;;;;;;16.23;8.50;;;8.40;65.80;;;;;;5070009;28;20376;-55
2022/09/23 01:36:33;;;;;;;14.23;8.23;;;8.50;58.10;;;;;;5070220;28;20861;-55
2022/09/23 01:39:07;;;;;;;17.60;9.63;;;8.40;31.60;;;;;;5070283;28;20411;-55
2022/09/23 01:42:02;;;;;;;14.23;8.00;;;9.40;53.30;;;;;;5068832;28;20415;-55
2022/09/23 01:44:40;;;;;;;14.63;8.40;;;8.20;48.30;;;;;;5051314;28;20396;-55
2022/09/23 01:47:13;;;;;;;15.30;8.23;;;8.10;81.50;;;;;;5069771;28;20419;-55
2022/09/23 01:49:59;;;;;;;16.27;7.82;;;8.20;86.60;;;;;;5068895;28;20471;-55
2022/09/23 01:52:41;;;;;;;15.73;8.52;;;8.20;43.70;;;;;;5068900;28;20945;-55
2022/09/23 01:55:17;;;;;;;14.25;7.95;;;8.20;42.80;;;;;;5070123;28;20380;-55
2022/09/23 01:57:48;;;;;;;17.13;8.38;;;8.10;49.00;;;;;;5069505;28;20453;-55
2022/09/23 02:00:17;;;;;;;15.07;7.90;;;8.20;38.20;;;;;;5069195;28;21086;-55
2022/09/23 02:02:49;;;;;;;14.32;7.80;;;8.50;37.60;;;;;;5069894;28;20398;-55
2022/09/23 02:05:17;;;;;;;14.63;7.82;;;8.20;22.20;;;;;;5069578;28;20492;-55
2022/09/23 02:07:58;;;;;;;15.35;8.18;;;8.20;36.20;;;;;;5056979;28;20397;-55
2022/09/23 02:10:43;;;;;;;16.33;8.23;;;8.20;46.90;;;;;;5048798;28;20901;-55
2022/09/23 02:13:41;;;;;;;15.75;7.38;;;8.10;53.20;;;;;;5057828;28;20422;-55
2022/09/23 02:16:21;;;;;;;14.38;7.80;;;8.10;58.40;;;;;;5023698;28;20405;-55
2022/09/23 02:19:00;;;;;;;14.80;8.40;;;8.10;65.10;;;;;;5049590;28;20381;-55
2022/09/23 02:21:39;;;;;;;17.33;8.65;;;8.20;65.10;;;;;;5048922;28;20386;-55
2022/09/23 02:24:26;;;;;;;14.27;7.32;;;9.60;93.00;;;;;;5049257;28;20374;-55
2022/09/23 02:27:00;;;;;;;13.60;7.38;;;8.30;96.70;;;;;;5049052;28;20515;-55
2022/09/23 02:29:48;;;;;;;13.95;7.40;;;8.10;99.50;;;;;;5048270;28;20405;-54
2022/09/23 02:32:44;;;;;;;13.60;7.35;;;8.10;91.70;;;;;;5048852;28;20496;-55
2022/09/23 02:35:41;;;;;;;17.88;7.38;;;8.20;92.50;;;;;;5048887;28;20388;-55
2022/09/23 02:38:09;;;;;;;14.67;8.00;;;8.20;76.90;;;;;;5048221;28;20798;-55
2022/09/23 02:40:40;;;;;;;17.10;6.80;;;8.80;99.90;;;;;;5047993;28;20382;-55
2022/09/23 02:43:21;;;;;;;14.32;7.43;;;8.20;98.20;;;;;;5048900;28;20389;-55
2022/09/23 02:45:46;;;;;;;17.67;7.97;;;8.10;96.70;;;;;;5048627;28;20377;-55
2022/09/23 02:48:19;;;;;;;17.10;8.57;;;8.10;91.40;;;;;;5048385;28;20518;-55
2022/09/23 02:50:46;;;;;;;16.25;8.30;;;8.10;99.90;;;;;;5047980;28;20886;-55
2022/09/23 02:53:14;;;;;;;19.88;8.32;;;8.00;99.90;;;;;;5048430;28;20408;-55
2022/09/23 02:55:41;;;;;;;13.73;7.53;;;8.00;99.90;;;;;;5047638;28;20447;-55
2022/09/23 02:58:10;;;;;;;15.13;8.30;;;9.20;99.90;;;;;;5048186;28;20381;-55
2022/09/23 03:00:57;;;;;;;16.35;8.25;;;8.00;99.90;;;;;;5047802;28;20455;-55
2022/09/23 03:03:35;;;;;;;15.05;8.82;;;8.10;99.90;;;;;;5047245;28;20389;-55
2022/09/23 03:06:13;;;;;;;13.93;8.55;;;8.00;99.90;;;;;;5048194;28;20369;-55
2022/09/23 03:08:50;;;;;;;17.10;8.60;;;8.20;99.90;;;;;;5047514;28;20388;-55
2022/09/23 03:11:16;;;;;;;15.30;8.80;;;8.00;99.90;;;;;;5048160;28;20417;-55
2022/09/23 03:14:05;;;;;;;16.23;8.85;;;8.60;99.90;;;;;;5048079;28;20393;-55
2022/09/23 03:16:54;;;;;;;15.95;9.13;;;8.00;99.90;;;;;;5047590;28;20397;-55
2022/09/23 03:19:34;;;;;;;15.68;9.02;;;8.10;99.90;;;;;;5047843;28;20897;-55
2022/09/23 03:22:10;;;;;;;16.98;9.40;;;7.90;99.90;;;;;;5048575;28;20496;-55
2022/09/23 03:24:38;;;;;;;18.13;9.48;;;7.90;99.90;;;;;;5047871;28;20374;-55
2022/09/23 03:27:12;;;;;;;18.05;9.10;;;7.90;99.90;;;;;;5048385;28;20403;-55
2022/09/23 03:29:48;;;;;;;16.48;9.35;;;7.90;99.90;;;;;;5047480;28;20405;-55
2022/09/23 03:32:17;;;;;;;18.25;9.57;;;7.80;99.90;;;;;;5065497;28;20476;-55
2022/09/23 03:34:45;;;;;;;22.63;9.90;;;7.80;99.90;;;;;;5067708;28;20433;-54
2022/09/23 03:37:18;;;;;;;16.50;9.10;;;7.80;99.90;;;;;;5067845;28;20990;-55
2022/09/23 03:39:52;;;;;;;21.42;9.88;;;8.20;99.90;;;;;;5067767;28;20376;-55
2022/09/23 03:42:22;;;;;;;18.10;10.10;;;7.80;99.90;;;;;;5061801;28;20425;-55
2022/09/23 03:44:52;;;;;;;19.55;9.30;;;7.70;99.90;;;;;;5067582;28;20945;-55
2022/09/23 03:47:19;;;;;;;17.10;8.80;;;7.70;99.90;;;;;;5067525;28;20376;-55
2022/09/23 03:49:47;;;;;;;19.02;9.32;;;6.40;99.90;;;;;;5068123;28;20388;-55
2022/09/23 03:52:14;;;;;;;17.93;9.27;;;7.80;99.90;;;;;;5071270;28;20400;-55
2022/09/23 03:54:39;;;;;;;16.58;8.77;;;8.80;99.90;;;;;;5070857;28;20387;-55
2022/09/23 03:57:06;;;;;;;16.52;9.30;;;7.60;99.90;;;;;;5071543;28;20384;-54
2022/09/23 03:59:32;;;;;;;19.67;9.52;;;8.40;99.90;;;;;;5070493;28;20422;-54
2022/09/23 04:01:58;;;;;;;22.05;9.63;;;7.60;99.90;;;;;;5071269;28;20441;-55
2022/09/23 04:04:28;;;;;;;24.63;9.50;;;7.70;99.90;;;;;;5052986;28;20378;-55
2022/09/23 04:06:54;;;;;;;18.58;9.55;;;7.60;99.90;;;;;;5058854;28;20381;-54
2022/09/23 04:09:21;;;;;;;18.17;9.50;;;8.40;99.90;;;;;;5050731;28;20381;-55
2022/09/23 04:11:51;;;;;;;18.03;9.27;;;7.60;99.90;;;;;;5051519;28;20413;-55
2022/09/23 04:14:18;;;;;;;18.33;10.10;;;7.50;99.90;;;;;;5062160;28;20383;-55
2022/09/23 04:16:44;;;;;;;19.35;9.15;;;7.50;99.90;;;;;;5070843;28;20380;-54
2022/09/23 04:19:11;;;;;;;19.02;9.13;;;7.50;99.90;;;;;;5071085;28;20821;-55
2022/09/23 04:21:36;;;;;;;17.30;9.60;;;7.40;99.90;;;;;;5070516;28;20411;-55
2022/09/23 04:24:02;;;;;;;16.90;9.57;;;7.50;99.90;;;;;;5071010;28;20519;-55
2022/09/23 04:26:28;;;;;;;16.55;9.43;;;7.40;99.90;;;;;;5069864;28;20440;-55
2022/09/23 04:28:54;;;;;;;21.98;9.90;;;7.50;99.90;;;;;;5066502;28;20457;-55
2022/09/23 04:31:22;;;;;;;20.27;9.50;;;7.50;99.90;;;;;;5066920;28;20407;-54
2022/09/23 04:33:48;;;;;;;18.17;9.60;;;7.50;99.90;;;;;;5067595;28;20375;-54
2022/09/23 04:36:14;;;;;;;18.13;9.60;;;7.60;99.90;;;;;;5070631;28;20391;-55
2022/09/23 04:38:43;;;;;;;17.23;9.50;;;7.60;99.90;;;;;;5069727;28;20971;-55
2022/09/23 04:41:09;;;;;;;18.13;9.20;;;8.50;99.90;;;;;;5059334;28;20454;-55
2022/09/23 04:43:35;;;;;;;17.35;9.23;;;7.60;99.90;;;;;;5069585;28;20482;-55
2022/09/23 04:46:05;;;;;;;15.77;8.90;;;7.60;99.90;;;;;;5070040;28;20403;-55
2022/09/23 04:48:31;;;;;;;14.80;8.30;;;7.60;99.90;;;;;;5066341;28;20395;-55
2022/09/23 04:51:07;;;;;;;19.57;9.37;;;7.60;99.90;;;;;;5070324;28;20999;-55
2022/09/23 04:53:34;;;;;;;14.30;7.80;;;7.60;99.90;;;;;;5069392;28;20399;-55
2022/09/23 04:56:05;;;;;;;17.15;9.25;;;7.60;99.90;;;;;;5064628;28;20394;-56
2022/09/23 04:58:32;;;;;;;15.00;7.80;;;8.80;99.90;;;;;;5068333;28;20386;-55
2022/09/23 05:01:06;;;;;;;15.57;8.40;;;9.00;99.90;;;;;;5065336;28;20404;-55
2022/09/23 05:03:34;;;;;;;13.50;8.20;;;8.30;99.90;;;;;;5068828;28;20433;-55
2022/09/23 05:06:00;;;;;;;15.30;8.45;;;7.70;93.00;;;;;;5069613;28;20815;-55
2022/09/23 05:08:26;;;;;;;17.20;8.50;;;7.80;68.90;;;;;;5068785;28;20934;-55
2022/09/23 05:10:59;;;;;;;19.00;8.90;;;7.70;90.30;;;;;;5069815;28;20403;-55
2022/09/23 05:13:25;;;;;;;14.88;8.57;;;9.00;98.80;;;;;;5062097;28;20481;-55
2022/09/23 05:15:57;;;;;;;16.40;8.83;;;7.80;98.70;;;;;;5054774;28;20854;-54
2022/09/23 05:18:23;;;;;;;16.38;8.60;;;7.80;93.50;;;;;;5050919;28;20421;-55
2022/09/23 05:20:55;;;;;;;17.33;9.60;;;9.70;99.90;;;;;;5068684;28;20423;-55
2022/09/23 05:23:21;;;;;;;15.25;8.35;;;9.50;73.20;;;;;;5069221;28;20367;-55
2022/09/23 05:25:47;;;;;;;17.17;8.35;;;7.90;75.60;;;;;;5069774;28;20376;-55
2022/09/23 05:28:18;;;;;;;15.23;8.27;;;7.90;51.60;;;;;;5069551;28;20391;-55
2022/09/23 05:30:44;;;;;;;14.20;8.18;;;7.90;71.90;;;;;;5068737;28;20522;-55
2022/09/23 05:33:11;;;;;;;17.95;9.05;;;8.10;50.80;;;;;;5069579;28;20396;-55
2022/09/23 05:35:36;;;;;;;13.93;7.70;;;8.30;34.90;;;;;;5068654;28;20730;-54
2022/09/23 05:38:02;;;;;;;15.52;7.90;;;10.00;26.60;;;;;;5067587;28;20402;-55
2022/09/23 05:40:28;;;;;;;13.30;7.40;;;9.30;1.00;;;;;;5064776;28;20469;-55
2022/09/23 05:42:53;;;;;;;13.38;6.65;;;9.80;1.00;;;;;;5065854;28;20384;-55
2022/09/23 05:45:19;;;;;;;13.87;7.40;;;10.50;1.00;;;;;;5068312;28;20745;-55
2022/09/23 05:47:45;;;;;;;12.55;6.90;;;10.70;1.00;;;;;;5029299;28;20400;-55
2022/09/23 05:50:11;;;;;;;11.63;6.33;;;11.30;99.90;;;;;;5068683;28;20380;-55
2022/09/23 05:52:36;;;;;;;11.35;6.05;;;11.70;10.30;;;;;;5067788;28;20403;-55
2022/09/23 05:55:02;;;;;;;11.97;6.83;;;12.10;99.90;;;;;;5065230;28;20482;-55
2022/09/23 05:57:29;;;;;;;15.60;7.07;;;12.40;1.00;;;;;;5066341;28;20536;-55
2022/09/23 05:59:54;;;;;;;11.73;6.95;;;12.70;99.90;;;;;;5068521;28;20395;-55
2022/09/23 06:02:20;;;;;;;11.20;6.60;;;12.80;99.90;;;;;;5065369;28;20411;-55
2022/09/23 06:04:45;;;;;;;12.37;6.60;;;13.00;99.90;;;;;;5059331;28;20948;-55
2022/09/23 06:07:11;;;;;;;11.73;5.87;;;13.30;99.90;;;;;;5068853;28;20380;-55
2022/09/23 06:09:37;;;;;;;11.25;6.20;;;13.80;96.10;;;;;;5060523;28;20402;-55
2022/09/23 06:12:03;;;;;;;12.37;6.37;;;14.20;15.70;;;;;;5056260;28;20436;-55
2022/09/23 06:14:29;;;;;;;11.40;6.00;;;14.70;1.00;;;;;;5059478;28;20512;-55
2022/09/23 06:16:54;;;;;;;13.67;6.33;;;15.10;1.00;;;;;;5058504;28;20866;-55
2022/09/23 06:19:20;;;;;;;11.98;6.40;;;15.50;1.00;;;;;;5061190;28;20396;-55
2022/09/23 06:21:47;;;;;;;12.50;6.65;;;15.50;1.00;;;;;;5069077;28;20510;-55
2022/09/23 06:24:13;;;;;;;10.27;6.25;;;15.90;1.00;;;;;;5069604;28;20376;-55
2022/09/23 06:26:39;;;;;;;11.20;6.23;;;15.80;1.00;;;;;;5068301;28;20391;-55
2022/09/23 06:29:13;;;;;;;13.00;6.50;;;15.60;1.00;;;;;;5069362;28;20403;-55
2022/09/23 06:31:40;;;;;;;11.95;6.60;;;16.00;1.00;;;;;;5067671;28;20441;-56
2022/09/23 06:34:12;;;;;;;11.25;5.80;;;16.70;1.00;;;;;;5068150;28;21424;-56
2022/09/23 06:36:39;;;;;;;10.13;6.38;;;17.40;1.00;;;;;;5068143;28;20462;-56
2022/09/23 06:39:05;;;;;;;13.60;6.80;;;18.00;99.90;;;;;;5064150;28;20493;-55
2022/09/23 06:41:31;;;;;;;11.60;5.70;;;17.90;99.90;;;;;;5067853;28;20395;-55
2022/09/23 06:43:57;;;;;;;15.20;6.10;;;17.40;99.90;;;;;;5066404;28;20458;-56
2022/09/23 06:46:22;;;;;;;11.97;6.07;;;17.90;99.90;;;;;;5069058;28;20479;-56
2022/09/23 06:48:49;;;;;;;12.00;6.10;;;18.00;99.90;;;;;;5068826;28;20411;-56
2022/09/23 06:51:18;;;;;;;10.82;5.82;;;18.00;99.90;;;;;;5068940;28;20411;-55
2022/09/23 06:53:45;;;;;;;11.35;6.80;;;18.00;99.90;;;;;;5066572;28;20853;-56
2022/09/23 06:56:11;;;;;;;12.70;6.35;;;18.10;99.90;;;;;;5061485;28;20966;-56
2022/09/23 06:58:39;;;;;;;12.63;6.47;;;17.80;99.90;;;;;;5065457;28;20388;-56
2022/09/23 07:01:07;;;;;;;12.13;6.15;;;17.50;99.90;;;;;;5062097;28;20893;-56
2022/09/23 07:03:33;;;;;;;12.82;6.50;;;17.70;99.90;;;;;;5051333;28;20382;-56
2022/09/23 07:05:59;;;;;;;10.88;6.50;;;18.00;99.90;;;;;;5056292;28;20376;-56
2022/09/23 07:08:26;;;;;;;12.48;6.75;;;18.20;99.90;;;;;;5062453;28;20377;-56
2022/09/23 07:11:04;;;;;;;9.67;6.03;;;18.10;99.90;;;;;;5049227;28;20409;-55
2022/09/23 07:13:32;;;;;;;9.93;5.90;;;18.10;99.90;;;;;;5051716;28;20401;-56
2022/09/23 07:15:59;;;;;;;9.60;5.40;;;18.80;99.90;;;;;;5063789;28;20401;-56
2022/09/23 07:18:26;;;;;;;10.90;5.90;;;19.40;99.90;;;;;;5066406;28;20444;-56
2022/09/23 07:20:53;;;;;;;13.30;6.70;;;19.90;99.90;;;;;;5065983;28;20383;-56
2022/09/23 07:23:19;;;;;;;16.57;7.40;;;20.00;99.90;;;;;;5068901;28;20463;-55
2022/09/23 07:25:46;;;;;;;13.35;7.03;;;20.30;99.90;;;;;;5071128;28;20479;-54
2022/09/23 07:28:12;;;;;;;10.85;5.97;;;20.30;99.90;;;;;;5069769;28;20395;-55
2022/09/23 07:30:39;;;;;;;12.73;6.63;;;20.20;99.90;;;;;;5065259;28;20770;-56
2022/09/23 07:33:05;;;;;;;14.15;6.63;;;20.10;99.90;;;;;;5065988;28;20442;-56
2022/09/23 07:35:32;;;;;;;12.50;6.90;;;21.00;99.90;;;;;;5067518;28;20406;-56
2022/09/23 07:37:59;;;;;;;11.57;6.20;;;21.60;99.90;;;;;;5066303;28;20420;-56
2022/09/23 07:40:24;;;;;;;10.40;6.20;;;21.80;99.90;;;;;;5068184;28;20434;-56
2022/09/23 07:42:50;;;;;;;12.13;6.25;;;21.50;99.90;;;;;;5065459;28;20407;-56
2022/09/23 07:45:17;;;;;;;13.05;7.20;;;21.30;99.90;;;;;;5070883;28;20476;-56
2022/09/23 07:47:42;;;;;;;12.10;6.30;;;21.00;99.90;;;;;;5067473;28;20414;-55
2022/09/23 07:50:12;;;;;;;12.18;6.90;;;21.20;99.90;;;;;;5070592;28;20733;-56
2022/09/23 07:52:38;;;;;;;12.20;6.10;;;20.20;99.90;;;;;;5069669;28;20403;-56
2022/09/23 07:55:05;;;;;;;10.83;5.90;;;20.00;99.90;;;;;;5066773;28;20399;-55
2022/09/23 07:57:31;;;;;;;12.10;5.90;;;19.70;99.90;;;;;;5067043;28;20392;-56
2022/09/23 07:59:57;;;;;;;10.25;5.47;;;19.20;99.90;;;;;;5070013;28;20474;-55
2022/09/23 08:02:23;;;;;;;10.48;5.90;;;18.90;99.90;;;;;;5056088;28;20890;-55
2022/09/23 08:04:49;;;;;;;11.05;5.50;;;18.70;99.90;;;;;;5061910;28;20392;-55
2022/09/23 08:07:15;;;;;;;10.70;5.50;;;18.60;99.90;;;;;;5070955;28;20791;-55
2022/09/23 08:09:42;;;;;;;11.40;5.40;;;18.50;99.90;;;;;;5071161;28;20380;-55
2022/09/23 08:12:14;;;;;;;11.03;5.80;;;18.70;99.90;;;;;;5053831;28;20437;-55
2022/09/23 08:14:40;;;;;;;11.75;6.20;;;18.80;99.90;;;;;;5069506;28;20426;-55
2022/09/23 08:17:06;;;;;;;12.95;6.40;;;18.70;99.90;;;;;;5072103;28;20868;-55
2022/09/23 08:19:32;;;;;;;11.88;6.22;;;18.90;99.90;;;;;;5070664;28;20474;-55
2022/09/23 08:21:57;;;;;;;11.53;5.80;;;18.90;99.90;;;;;;5059013;28;20425;-56
2022/09/23 08:24:25;;;;;;;10.80;5.80;;;18.90;99.90;;;;;;5058372;28;20425;-55
2022/09/23 08:26:52;;;;;;;10.30;5.80;;;19.10;99.90;;;;;;5073076;28;20932;-56
2022/09/23 08:29:19;;;;;;;9.13;5.55;;;19.10;99.90;;;;;;5071007;28;20791;-56
2022/09/23 08:31:45;;;;;;;10.73;5.28;;;19.10;99.90;;;;;;5070469;28;20498;-55
2022/09/23 08:34:11;;;;;;;8.77;5.25;;;19.30;99.90;;;;;;5071574;28;20379;-55
2022/09/23 08:36:37;;;;;;;9.30;5.00;;;19.60;99.90;;;;;;5069748;28;20384;-55
2022/09/23 08:39:04;;;;;;;12.32;5.30;;;19.30;99.90;;;;;;5071178;28;20376;-52
2022/09/23 08:41:51;;;;;;;10.60;4.90;;;19.20;99.90;;;;;;5070011;28;20725;-53
2022/09/23 08:44:39;;;;;;;10.30;4.70;;;19.60;99.90;;;;;;5071649;28;20467;-53
2022/09/23 08:47:14;;;;;;;9.43;4.88;;;19.70;99.90;;;;;;5071310;28;20487;-55
2022/09/23 08:49:55;;;;;;;10.55;5.10;;;20.50;99.90;;;;;;5065209;28;20403;-56
2022/09/23 08:52:33;;;;;;;11.15;5.40;;;21.30;99.90;;;;;;5062520;28;20494;-55
2022/09/23 08:55:01;;;;;;;9.10;5.00;;;20.50;99.90;;;;;;5068353;28;21093;-56
2022/09/23 08:57:47;;;;;;;7.70;4.13;;;21.10;99.90;;;;;;5084128;28;20386;-56
2022/09/23 09:00:19;;;;;;;9.05;4.50;;;21.10;99.90;;;;;;5091566;28;20412;-56
2022/09/23 09:02:47;;;;;;;10.55;5.00;;;21.30;99.90;;;;;;5090736;28;20439;-56
2022/09/23 09:05:18;;;;;;;8.77;4.22;;;21.80;99.90;;;;;;5091638;28;20382;-56
2022/09/23 09:07:44;;;;;;;9.40;4.57;;;21.60;99.90;;;;;;5073556;28;20413;-56
2022/09/23 09:10:20;;;;;;;8.70;4.50;;;21.10;99.90;;;;;;5070848;28;20740;-56
2022/09/23 09:12:59;;;;;;;9.25;4.70;;;21.10;99.90;;;;;;5069959;28;20559;-56
2022/09/23 09:15:26;;;;;;;9.00;4.80;;;21.80;99.90;;;;;;5050777;28;20930;-56
2022/09/23 09:18:06;;;;;;;9.00;4.90;;;22.80;99.90;;;;;;5050354;28;20374;-56
2022/09/23 09:21:07;;;;;;;10.60;5.13;;;23.00;99.90;;;;;;5050019;28;20373;-56
2022/09/23 09:23:37;;;;;;;9.45;5.25;;;23.50;99.90;;;;;;5049555;28;20393;-56
2022/09/23 09:26:04;;;;;;;9.30;5.80;;;23.40;99.90;;;;;;5054473;28;20452;-56
2022/09/23 09:28:34;;;;;;;11.70;5.88;;;24.00;99.90;;;;;;5089511;28;20477;-56
2022/09/23 09:31:04;;;;;;;9.20;6.20;;;24.30;99.90;;;;;;5090201;28;20422;-56
2022/09/23 09:33:39;;;;;;;11.23;5.93;;;24.30;99.90;;;;;;5089627;28;20375;-56
2022/09/23 09:36:29;;;;;;;9.98;6.07;;;24.00;99.90;;;;;;5090019;28;20745;-56
2022/09/23 09:38:57;;;;;;;9.10;6.25;;;24.00;99.90;;;;;;5090259;28;20386;-56
2022/09/23 09:41:27;;;;;;;12.13;6.45;;;24.50;99.90;;;;;;5090202;28;20382;-56
2022/09/23 09:43:58;;;;;;;9.90;6.87;;;25.20;99.90;;;;;;5081248;28;20384;-56
2022/09/23 09:46:48;;;;;;;12.07;7.20;;;25.40;99.90;;;;;;5070419;28;20767;-57
2022/09/23 09:49:34;;;;;;;10.70;7.27;;;26.30;99.90;;;;;;5069535;28;20380;-56
2022/09/23 09:52:29;;;;;;;14.45;7.53;;;24.90;99.90;;;;;;5069535;28;20411;-56
2022/09/23 09:55:13;;;;;;;14.55;7.82;;;25.40;99.90;;;;;;5069365;28;20469;-56
2022/09/23 09:57:52;;;;;;;9.70;8.15;;;25.40;99.90;;;;;;5084513;28;20381;-56
2022/09/23 10:00:26;;;;;;;9.75;7.50;;;26.30;99.90;;;;;;5089750;28;20535;-57
2022/09/23 10:02:59;;;;;;;10.18;7.40;;;27.10;99.90;;;;;;5089473;28;20476;-56
2022/09/23 10:05:32;;;;;;;9.25;7.50;;;27.40;99.90;;;;;;5090155;28;20366;-56
2022/09/23 10:08:28;;;;;;;10.90;7.20;;;27.00;99.90;;;;;;5089954;28;20851;-56
2022/09/23 10:11:15;;;;;;;12.93;8.88;;;27.60;99.90;;;;;;5089511;28;20858;-56
2022/09/23 10:14:00;;;;;;;12.02;7.90;;;27.80;99.90;;;;;;5073102;28;20411;-56
2022/09/23 10:16:26;;;;;;;9.65;8.55;;;27.60;99.90;;;;;;5067633;28;20423;-56
2022/09/23 10:18:55;;;;;;;12.10;9.27;;;27.70;99.90;;;;;;5054793;28;20392;-56
2022/09/23 10:21:23;;;;;;;10.38;7.50;;;27.60;99.90;;;;;;5049621;28;20995;-56
2022/09/23 10:24:00;;;;;;;11.32;7.60;;;27.10;99.90;;;;;;5048909;28;20396;-56
2022/09/23 10:26:31;;;;;;;11.50;8.13;;;27.80;99.90;;;;;;5053598;28;20388;-56
2022/09/23 10:28:58;;;;;;;9.83;6.33;;;28.40;99.90;;;;;;5055168;28;20465;-56
2022/09/23 10:31:34;;;;;;;11.48;6.13;;;28.20;99.90;;;;;;5067192;28;20913;-56
2022/09/23 10:34:18;;;;;;;9.20;4.80;;;26.90;99.90;;;;;;5061218;28;20430;-56
2022/09/23 10:37:22;;;;;;;9.90;4.80;;;26.90;99.90;;;;;;5058537;28;21091;-57
2022/09/23 10:49:00;;;;;;;10.23;5.22;;;27.10;99.90;;;;;;5064767;28;20481;-56
2022/09/23 10:51:43;;;;;;;11.30;5.40;;;27.70;99.90;;;;;;5067651;28;20857;-57
2022/09/23 10:54:18;;;;;;;8.85;5.18;;;28.10;99.90;;;;;;5055891;28;20474;-56
2022/09/23 11:00:27;;;;;;;10.65;7.43;;;26.20;99.90;;;;;;5037876;28;20414;-56
2022/09/23 11:03:08;;;;;;;8.85;6.60;;;25.90;99.90;;;;;;5069255;28;20403;-56
2022/09/23 11:05:39;;;;;;;10.65;6.65;;;26.40;99.90;;;;;;5074601;28;20396;-56
2022/09/23 11:08:17;;;;;;;10.18;6.88;;;27.30;99.90;;;;;;5090022;28;20434;-56
2022/09/23 11:11:07;;;;;;;9.93;6.95;;;27.10;99.90;;;;;;5072525;28;20388;-56
2022/09/23 11:14:04;;;;;;;12.40;6.40;;;26.60;99.90;;;;;;5072638;28;20390;-57
2022/09/23 11:16:49;;;;;;;11.60;6.32;;;27.00;99.90;;;;;;5072617;28;20399;-56
2022/09/23 11:19:39;;;;;;;9.82;6.00;;;27.20;99.90;;;;;;5068691;28;20825;-56
2022/09/23 11:22:36;;;;;;;12.05;6.45;;;26.50;99.90;;;;;;5072382;28;20864;-56
2022/09/23 11:25:30;;;;;;;10.30;6.32;;;25.40;99.90;;;;;;5055218;28;20408;-56
2022/09/23 11:28:17;;;;;;;9.52;5.45;;;24.80;99.90;;;;;;5088258;28;20378;-56
2022/09/23 11:31:00;;;;;;;9.73;6.20;;;24.30;99.90;;;;;;5091995;28;20871;-56
2022/09/23 11:33:54;;;;;;;9.82;6.15;;;23.80;99.90;;;;;;5093167;28;20401;-56
2022/09/23 11:36:22;;;;;;;11.35;5.80;;;23.60;99.90;;;;;;5093092;28;20382;-56
2022/09/23 11:38:51;;;;;;;9.77;5.70;;;23.30;99.90;;;;;;5092391;28;20859;-56
2022/09/23 11:41:20;;;;;;;11.13;6.23;;;23.10;99.90;;;;;;5093044;28;20385;-56
2022/09/23 11:43:51;;;;;;;9.80;6.00;;;23.30;99.90;;;;;;5092057;28;20393;-57
2022/09/23 11:46:19;;;;;;;11.02;6.35;;;23.40;99.90;;;;;;5092976;28;20816;-56
2022/09/23 11:48:53;;;;;;;9.35;6.30;;;23.20;99.90;;;;;;5092544;28;21093;-56
2022/09/23 11:51:36;;;;;;;9.43;5.45;;;23.00;99.90;;;;;;5092888;28;20872;-56
2022/09/23 11:54:19;;;;;;;11.13;6.15;;;23.10;99.90;;;;;;5092910;28;20435;-56
2022/09/23 11:56:49;;;;;;;10.60;5.90;;;22.60;99.90;;;;;;5073508;28;20483;-55
2022/09/23 11:59:30;;;;;;;10.00;5.90;;;22.50;99.90;;;;;;5064644;28;20400;-56
2022/09/23 12:02:04;;;;;;;9.95;6.10;;;22.70;99.90;;;;;;5063362;28;20423;-55
2022/09/23 12:04:41;;;;;;;9.93;5.50;;;22.70;99.90;;;;;;5051800;28;20373;-56
2022/09/23 12:07:07;;;;;;;11.43;5.20;;;22.40;99.90;;;;;;5052532;28;20381;-56
2022/09/23 12:09:54;;;;;;;7.80;4.90;;;22.50;99.90;;;;;;5051437;28;20445;-56
2022/09/23 12:12:37;;;;;;;8.00;5.25;;;22.60;99.90;;;;;;5051074;28;20401;-56
2022/09/23 12:15:12;;;;;;;9.30;5.70;;;22.80;99.90;;;;;;5069766;28;20862;-56
2022/09/23 12:18:10;;;;;;;9.80;5.78;;;22.80;99.90;;;;;;5066793;28;20395;-56
2022/09/23 12:20:54;;;;;;;10.75;5.88;;;22.60;99.90;;;;;;5020219;28;20480;-56
2022/09/23 12:23:39;;;;;;;9.77;5.57;;;23.10;99.90;;;;;;5052047;28;20385;-56
2022/09/23 12:26:13;;;;;;;11.63;5.30;;;22.80;99.90;;;;;;5057065;28;20403;-56
2022/09/23 12:28:45;;;;;;;8.80;4.80;;;22.70;99.90;;;;;;5064655;28;20408;-56
2022/09/23 12:31:15;;;;;;;9.85;5.13;;;22.90;99.90;;;;;;5070896;28;20477;-56
2022/09/23 12:33:54;;;;;;;9.82;5.35;;;22.80;99.90;;;;;;5070229;28;20942;-56
2022/09/23 12:36:33;;;;;;;8.50;4.40;;;22.80;99.90;;;;;;5068776;28;20482;-56
2022/09/23 12:39:06;;;;;;;8.70;4.20;;;22.70;99.90;;;;;;5069583;28;20397;-56
2022/09/23 12:41:36;;;;;;;8.05;4.70;;;22.80;99.90;;;;;;5066557;28;20387;-56
2022/09/23 12:44:11;;;;;;;8.07;4.07;;;23.10;99.90;;;;;;5066920;28;20396;-57
2022/09/23 12:46:38;;;;;;;8.07;4.50;;;23.20;99.90;;;;;;5068682;28;20396;-56
2022/09/23 12:49:20;;;;;;;9.93;4.93;;;23.00;99.90;;;;;;5067049;28;20744;-57
2022/09/23 12:52:11;;;;;;;8.00;4.40;;;22.80;99.90;;;;;;5065160;28;20453;-55
2022/09/23 12:54:41;;;;;;;8.63;4.40;;;22.70;99.90;;;;;;5067097;28;20391;-56
2022/09/23 12:57:32;;;;;;;8.70;4.50;;;22.60;99.90;;;;;;5067447;28;20440;-56
2022/09/23 13:00:11;;;;;;;8.25;4.22;;;22.90;99.90;;;;;;5066418;28;20404;-56
2022/09/23 13:02:46;;;;;;;9.53;4.90;;;23.10;99.90;;;;;;5070127;28;20408;-62
2022/09/23 13:08:21;;;;;;;8.70;4.47;;;22.50;99.90;;;;;;5063426;28;20478;-62
2022/09/23 13:10:48;;;;;;;9.73;4.57;;;22.50;99.90;;;;;;5051382;28;20411;-61
2022/09/23 13:13:40;;;;;;;11.10;4.65;;;22.30;99.90;;;;;;5069554;28;20505;-61
2022/09/23 13:16:30;;;;;;;9.30;4.60;;;22.50;99.90;;;;;;5069238;28;20426;-61
2022/09/23 13:18:58;;;;;;;10.93;5.20;;;22.40;99.90;;;;;;5068449;28;20423;-61
2022/09/23 13:21:43;;;;;;;10.07;4.35;;;22.70;99.90;;;;;;5066031;28;20405;-62
2022/09/23 13:24:23;;;;;;;7.13;3.93;;;23.10;99.90;;;;;;5065653;28;20403;-61
2022/09/23 13:26:54;;;;;;;8.67;5.13;;;22.90;99.90;;;;;;5068957;28;20483;-61